Historyczne dane pomiarowe

Dodano dane terminowe – wersja testowa.

Dane z okresu 1951-2019

Wersja bazy: 1.34 [2019-03-16, lista zmian], aktualizacja planowana na 2019-04-15

Dane meteo z obszaru Polski uzyskane na podstawie danych udostępnionych przez Instytut Meteorologii i Gospodarki Wodnej – Państwowy Instytut Badawczy.

 

Wybierz Datę:    

       

TemperaturaWilgotnośćWiatrCiśnienieOpadyŚniegCzas trwania zjawisk
 Stacja t tx tn tng RH VA  wxwx mslp ppp RRR   cm mm wxwxwxwxwxwxwx
1991-03-15 9.8 15.7 5.1 2.2 65.5- 0.0 2.0---- 0.0------------
1991-03-14 7.2 15.4 1.7 1.4 78.0- 0.0 0.7---- 0.0------------
1991-03-13 7.8 13.8 3.6 2.9 80.0- 3.0 0.7---- 0.0------------
1991-03-12 7.2 12.1 3.5 3.1 79.5- 1.3 2.3---- 0.0------------
1991-03-11 5.8 7.0 4.9 4.8 95.8- 8.0 2.0---- 0.2------------
1991-03-10 6.1 12.4 0.5 -0.2 88.5- 0.0 1.0---- 0.0------------
1991-03-09 7.5 14.3 3.9 3.7 84.3- 5.3 1.0---- 0.0------------
1991-03-08 7.2 16.8 1.0 -4.7 77.8- 3.7 1.3---- 0.0------------
1991-03-07 3.0 9.0 -0.1 -2.1 81.3- 2.7 3.0---- 0.0------------
1991-03-06 1.5 5.4 -0.5 -2.7 88.8- 4.0 4.0---- 0.0------------
1991-03-05 3.9 5.8 3.2 3.2 80.5- 8.0 2.0---- 0.0------------
1991-03-04 3.7 8.5 1.4 1.2 88.8- 7.7 2.3---- 0.0------------
1991-03-03 2.2 7.1 -0.7 -1.6 90.0- 4.0 1.0---- 0.0------------
1991-03-02 -0.3 1.9 -1.9 -2.2 88.5- 6.0 1.3---- 0.0------------
1991-03-01 -0.9 4.3 -4.7 -7.8 85.5- 0.7 2.7---- 0.0------------
1991-02-28 -0.7 2.1 -1.8 -2.8 87.0- 5.0 1.3---- 0.0------------
1991-02-27 -0.7 1.3 -2.7 -3.2 84.3- 7.7 2.0---- 0.0------------
1991-02-26 3.0 6.3 1.3 -3.0 86.5- 7.3 2.7---- 0.4-- 1---------
1991-02-25 3.2 8.5 -1.9 -5.1 90.0- 2.7 2.3---- 0.0-- 3---------
1991-02-24 3.9 5.7 3.2 -0.7 94.0- 6.0 1.3---- 0.9-- 5---------
1991-02-23 2.6 6.4 0.6 -6.1 82.8- 2.0 1.7---- 0.0-- 7---------
1991-02-22 0.7 7.3 -3.7 -7.8 82.8- 4.0 0.7---- 0.0-- 9---------
1991-02-21 0.8 7.0 -4.1-10.1 76.8- 3.0 0.7---- 0.0-- 10---------
1991-02-20 -0.5 2.9 -2.6-19.9 83.8- 5.3 2.7---- 0.0-- 10---------
1991-02-19 -6.3 0.9-13.9-20.7 85.3- 1.3 0.7---- 0.0-- 12---------
1991-02-18 -2.5 0.4 -4.6-12.4 89.0- 5.0 3.3---- 0.3-- 14---------
1991-02-17 -4.9 -0.9 -8.8-16.7 90.5- 5.0 1.7---- 0.3-- 15---------
1991-02-16 -8.0 -3.5-13.2-22.1 91.5- 8.0 1.0---- 2.6-- 14---------
1991-02-15 -7.9 -4.2 -9.9-20.5 75.3- 2.7 2.7---- 0.0-- 14---------
1991-02-14 -6.5 -4.3 -8.2-12.7 83.8- 8.0 3.3---- 0.0-- 14---------
1991-02-13 -4.9 -3.6 -5.7-15.2 95.0- 8.0 1.7---- 2.7-- 14---------
1991-02-12 -5.4 -1.4 -9.2-15.2 89.0- 5.3 0.7---- 9.0-- 4---------
1991-02-11 0.1 6.3 -3.1 -6.4 91.3- 8.0 2.7---- 1.5------------
1991-02-10 -2.6 5.3 -9.7-12.7 90.5- 7.3 1.0---- 0.6------------
1991-02-09 -1.8 -0.4 -3.1 -7.6 91.0- 8.0 1.0---- 0.0-- 3---------
1991-02-08 -5.6 -0.3-11.6-16.9 91.3- 8.0 2.0---- 0.0-- 5---------
1991-02-07 -8.9 -6.1-11.4-14.6 88.8- 7.3 1.7---- 0.0-- 5---------
1991-02-06-12.2 -7.1-15.8-19.5 90.5- 6.3 0.0---- 0.0-- 5---------
1991-02-05-13.7 -8.8-15.0-19.5 87.5- 8.0 1.7---- 0.2-- 6---------
1991-02-04 -8.3 -6.4-10.7-16.6 92.8- 8.0 1.3---- 1.5-- 4---------
1991-02-03-11.8 -5.5-16.6-21.7 79.8- 2.7 1.0---- 0.3------------
1991-02-02-14.4 -8.3-18.6-21.5 79.8- 0.0 2.3---- 0.0------------
1991-02-01-15.9-11.2-18.9-21.4 76.3- 0.0 1.0---- 0.0------------
1991-01-31-14.3 -8.3-18.1-21.5 79.8- 0.0 0.7---- 0.0-- 3---------
1991-01-30 -5.3 -0.7-11.8-15.8 81.0- 2.7 1.3---- 0.2-- 3---------
1991-01-29 -0.7 0.0 -2.1 -4.7 94.0- 8.0 2.7---- 1.8------------
1991-01-28 -0.2 0.0 -0.4 -1.3 98.3- 8.0 1.0---- 0.1------------
1991-01-27 -0.4 0.1 -1.8 -2.0 97.3- 8.0 0.7---- 1.1------------
1991-01-26 -1.3 -0.3 -4.0 -5.0 98.0- 7.0 1.7---- 0.4------------
1991-01-25 -1.1 0.7 -4.3 -8.1 94.3- 4.7 1.7---- 0.4------------
1991-01-24 -0.5 0.9 -2.1 -2.2 96.3- 8.0 2.0---- 0.4------------
1991-01-23 0.0 0.8 -2.0 -5.2 95.8- 8.0 1.7---- 0.0------------
1991-01-22 -3.2 -0.6 -8.0-10.1 95.0- 8.0 1.7---- 0.0------------
1991-01-21 -4.6 -0.1 -6.9 -9.0 90.5- 0.0 3.0---- 0.0------------
1991-01-20 -4.7 0.4-10.2-10.6 89.3- 1.0 0.3---- 0.0------------
1991-01-19 -6.9 -4.3-11.2-13.0 93.3- 4.7 0.3---- 0.0------------
1991-01-18 -5.4 0.5-10.2-13.0 90.8- 0.0 0.0---- 0.0------------
1991-01-17 -6.2 -0.3-11.2-12.1 85.8- 0.0 0.3---- 0.0------------
1991-01-16 -3.8 -1.0 -8.2-10.8 83.0- 0.0 1.3---- 0.0------------
1991-01-15 -5.7 -2.6-10.2-10.6 93.0- 8.0 2.0---- 0.0------------
485.5 ms

 

Źródłem pochodzenia danych jest Instytut Meteorologii i Gospodarki Wodnej – Państwowy Instytut Badawczy. Dane Instytutu Meteorologii i Gospodarki Wodnej – Państwowego Instytutu Badawczego zostały przetworzone.

Dane źródłowe można odnaleźć na stronie https://dane.imgw.pl